• Join FlightAware (Why Join?)
  • Login
  • US Flag 
10:10PM EDT


 

Airport Tracker/Info


-or-


 

Live Flight TrackerFlight Track Log ✈ EMD28 ✈ 03-May-2013 ✈ KCHS - KGYH

Flight Track Log - Related Links

Times and Time Zones

All times are in EDT time to prevent confusion due to time zone crossing. See the EMD28 flight status page for this flight to view local times or setup timezone preferences in your user account.

Time Position Orientation Groundspeed Altitude Reporting Facility
EDT Latitude Longitude Course Direction KTS MPH feet Rate Location/Type
12:24AM 32.9539 -80.0928 320° Northwest 156 180 2,500  Level Jacksonville Center
12:25AM 32.9922 -80.1311 320° Northwest 168 193 3,700 1,200 Climbing Jacksonville Center
12:26AM 33.0286 -80.1747 315° West 179 206 4,900 1,080 Climbing Jacksonville Center
12:27AM 33.0633 -80.2256 309° West 189 217 5,900 1,200 Climbing Jacksonville Center
12:28AM 33.1058 -80.2714 318° Northwest 189 217 7,400 1,260 Climbing Jacksonville Center
12:29AM 33.1760 -80.3761 320° Northwest  Level FlightAware Approximate
12:29AM 33.1422 -80.3175 313° West 189 217 8,500  Level Jacksonville Center
12:30AM 33.1786 -80.3636 313° West 184 212 9,400 900 Climbing Jacksonville Center
12:31AM 33.2172 -80.4097 315° West 184 212 10,400 1,020 Climbing Jacksonville Center
12:32AM 33.2536 -80.4533 315° West 184 212 11,500 960 Climbing Jacksonville Center
12:33AM 33.2900 -80.5022 312° West 189 217 12,400 840 Climbing Jacksonville Center
12:34AM 33.3283 -80.5508 313° West 189 217 13,200 780 Climbing Jacksonville Center
12:35AM 33.3669 -80.5969 315° West 189 217 14,000 360 Climbing Jacksonville Center
12:36AM 33.4097 -80.6531 312° West 204 235 14,000  Level Jacksonville Center
12:37AM 33.4586 -80.7117 315° West 226 260 14,000  Level Jacksonville Center
12:38AM 33.5078 -80.7728 314° West 244 281 14,000  Level Jacksonville Center
12:39AM 33.5483 -80.8414 305° West 251 289 14,000  Level Jacksonville Center
12:40AM 33.5914 -80.9103 307° West 261 300 14,000  Level Jacksonville Center
12:41AM 33.6342 -80.9792 307° West 261 300 14,000  Level Jacksonville Center
12:42AM 33.6769 -81.0481 307° West 261 300 14,000  Level Jacksonville Center
12:43AM 33.7175 -81.1147 306° West 255 293 14,000  Level Jacksonville Center
12:44AM 33.7622 -81.1839 308° West 255 293 14,100  Climbing Jacksonville Center
12:45AM 33.8028 -81.2531 305° West 255 293 14,100  Level Jacksonville Center
12:46AM 33.8475 -81.3197 309° West 255 293 14,100  Level Jacksonville Center
12:47AM 33.8881 -81.3892 305° West 255 293 14,100  Level Jacksonville Center
12:48AM 33.9306 -81.4558 308° West 255 293 14,100 -60 Level Jacksonville Center
12:50AM 34.0011 -81.5756 305° West 248 285 14,000 -120 Descending Atlanta Center
12:51AM 34.0400 -81.6422 305° West 248 285 13,800 -900 Descending Atlanta Center
12:52AM 34.0853 -81.7136 307° West 253 291 12,300 -900 Descending Atlanta Center
12:53AM 34.1325 -81.7878 308° West 258 297 12,000 -180 Descending Atlanta Center
12:54AM 34.1692 -81.8544 304° West 252 290 12,000 -120 Level Atlanta Center
12:55AM 34.2100 -81.9214 306° West 252 290 11,800 -900 Descending Atlanta Center
12:56AM 34.2486 -81.9806 308° West 242 278 10,300 -1,560 Descending Atlanta Center
12:57AM 34.2894 -82.0475 306° West 247 284 8,700 -1,620 Descending Atlanta Center
12:58AM 34.3303 -82.1194 305° West 247 284 7,100 -1,620 Descending Atlanta Center
12:59AM 34.3708 -82.1864 306° West 247 284 5,500 -1,680 Descending Atlanta Center
01:00AM 34.4094 -82.2536 305° West 247 284 3,800 -960 Descending Atlanta Center
01:01AM 34.4439 -82.3158 304° West 241 277 3,600 -60 Descending Atlanta Center
01:02AM 34.4778 -82.3681 308° West 219 252 3,700  Climbing Atlanta Center
01:03AM 34.5100 -82.4206 307° West 209 241 3,700  Level Atlanta Center
01:04AM 34.5419 -82.4753 305° West 209 241 3,700 -420 Level Atlanta Center
01:05AM 34.5822 -82.5275 313° West 209 241 2,900 -600 Descending Atlanta Center
01:06AM 34.6322 -82.5267 North 181 208 2,600 -180 Descending Atlanta Center
01:07AM 34.6567 -82.4833 56° Northeast 120 138 2,600  Level Atlanta Center
01:08AM 34.6836 -82.4525 43° Northeast 125 144 2,600 -360 Level Atlanta Center
01:09AM 34.7103 -82.4267 39° Northeast 125 144 1,900 -480 Descending Atlanta Center
01:10AM 34.7392 -82.3983 39° Northeast 125 144 1,700 -240 Descending Atlanta Center